Ever Unicorn — 9V7963 — position and weather

sailwx.info

Track history (hours):
 
Tides and Currents Weather Stations Pressure Air Temp Water Temp Dewpoint Dewpoint Depression Visibility Wind Speed Wind Dir Waves Ship Positions

Ever Unicorn

Last reported at 2016-Feb-07 06:26 UTC. Time now 2016-Feb-11 06:37 UTC.
Position N 22°02' E 120°09'.

Length 285 m; draft 10.2 m.

Type: Ship (hazmat cat D). MMSI: 564995000.

Date/timePositionNaut miles runAvg speedWind from/ knotsBaromVisibWave heightAir tempDewpointWater temp
2016-Feb-07 06:26N 22°02' E 120°09'1416.1
2016-Feb-07 05:33N 22°16' E 120°10'1716.5
2016-Feb-07 04:33N 22°32' E 120°12'7 7.1
2016-Feb-07 03:33N 22°33' E 120°20'0 0.0
2016-Feb-07 02:33N 22°33' E 120°20'0 0.0
2016-Feb-07 01:33N 22°33' E 120°20'0 0.1
2016-Feb-07 00:33N 22°33' E 120°20'0 0.1
2016-Feb-06 23:33N 22°33' E 120°20'0 0.0
2016-Feb-06 22:33N 22°33' E 120°20'0 0.0
2016-Feb-06 21:33N 22°33' E 120°20'0 0.1
2016-Feb-06 20:33N 22°33' E 120°20'0 0.1
2016-Feb-06 19:33N 22°33' E 120°20'0 0.0
2016-Feb-06 18:33N 22°33' E 120°20'0 0.0
2016-Feb-06 17:33N 22°33' E 120°20'0 0.0
2016-Feb-06 16:33N 22°33' E 120°20'0 0.0
2016-Feb-06 15:33N 22°33' E 120°20'0 0.0
2016-Feb-06 14:33N 22°33' E 120°20'0 0.0
2016-Feb-06 13:33N 22°33' E 120°20'0 0.0
2016-Feb-06 12:33N 22°33' E 120°20'0 0.0
2016-Feb-06 11:33N 22°33' E 120°20'0 0.1
2016-Feb-06 10:33N 22°33' E 120°20'4 4.1
2016-Feb-06 09:33N 22°32' E 120°15'5 5.4
2016-Feb-06 08:33N 22°30' E 120°10'7 7.5
2016-Feb-06 07:33N 22°24' E 120°05'9 8.7
2016-Feb-06 06:33N 22°18' E 119°58'10 9.5
2016-Feb-06 05:33N 22°11' E 119°51'  
2016-Jan-28 09:31N 01°16' E 104°12'1515.5
2016-Jan-28 08:33N 01°13' E 103°57'1414.2
2016-Jan-28 07:33N 01°07' E 103°45'  
Track history (hours):
 
Tides and Currents Weather Stations Pressure Air Temp Water Temp Dewpoint Dewpoint Depression Visibility Wind Speed Wind Dir Waves Ship Positions

Ever Unicorn

Last reported at 2016-Feb-07 06:26 UTC. Time now 2016-Feb-11 06:37 UTC.
Position N 22°02' E 120°09'.

Length 285 m; draft 10.2 m.

Type: Ship (hazmat cat D). MMSI: 564995000.

Date/timePositionNaut miles runAvg speedWind from/ knotsBaromVisibWave heightAir tempDewpointWater temp
2016-Feb-07 06:26N 22°02' E 120°09'1416.1
2016-Feb-07 05:33N 22°16' E 120°10'1716.5
2016-Feb-07 04:33N 22°32' E 120°12'7 7.1
2016-Feb-07 03:33N 22°33' E 120°20'0 0.0
2016-Feb-07 02:33N 22°33' E 120°20'0 0.0
2016-Feb-07 01:33N 22°33' E 120°20'0 0.1
2016-Feb-07 00:33N 22°33' E 120°20'0 0.1
2016-Feb-06 23:33N 22°33' E 120°20'0 0.0
2016-Feb-06 22:33N 22°33' E 120°20'0 0.0
2016-Feb-06 21:33N 22°33' E 120°20'0 0.1
2016-Feb-06 20:33N 22°33' E 120°20'0 0.1
2016-Feb-06 19:33N 22°33' E 120°20'0 0.0
2016-Feb-06 18:33N 22°33' E 120°20'0 0.0
2016-Feb-06 17:33N 22°33' E 120°20'0 0.0
2016-Feb-06 16:33N 22°33' E 120°20'0 0.0
2016-Feb-06 15:33N 22°33' E 120°20'0 0.0
2016-Feb-06 14:33N 22°33' E 120°20'0 0.0
2016-Feb-06 13:33N 22°33' E 120°20'0 0.0
2016-Feb-06 12:33N 22°33' E 120°20'0 0.0
2016-Feb-06 11:33N 22°33' E 120°20'0 0.1
2016-Feb-06 10:33N 22°33' E 120°20'4 4.1
2016-Feb-06 09:33N 22°32' E 120°15'5 5.4
2016-Feb-06 08:33N 22°30' E 120°10'7 7.5
2016-Feb-06 07:33N 22°24' E 120°05'9 8.7
2016-Feb-06 06:33N 22°18' E 119°58'10 9.5
2016-Feb-06 05:33N 22°11' E 119°51'  
2016-Jan-28 09:31N 01°16' E 104°12'1515.5
2016-Jan-28 08:33N 01°13' E 103°57'1414.2
2016-Jan-28 07:33N 01°07' E 103°45'  

Dump ship's entire track history